Time;durP1;ratioP1;P1;durP2;ratioP2;P2;SDS_P1;SDS_P2;PMS_P1;PMS_P2;Temp;Humidity;BMP_temperature;BMP_pressure;BME280_temperature;BME280_humidity;BME280_pressure;Samples;Min_cycle;Max_cycle;Signal;HPM_P1;HPM_P2
2022/09/30 00:00:42;;;;;;;4.80;3.00;;;11.00;78.70;;;;;;4108191;28;20030;-85
2022/09/30 00:02:43;;;;;;;5.82;3.25;;;11.00;78.70;;;;;;4109735;28;20037;-86
2022/09/30 00:04:44;;;;;;;7.20;3.38;;;10.90;78.70;;;;;;4112321;28;20401;-85
2022/09/30 00:06:44;;;;;;;4.63;3.33;;;10.90;78.70;;;;;;4108206;28;20509;-85
2022/09/30 00:08:45;;;;;;;6.68;3.33;;;11.00;78.80;;;;;;4112284;28;20039;-85
2022/09/30 00:10:46;;;;;;;7.00;3.17;;;11.00;78.90;;;;;;4108911;28;20291;-86
2022/09/30 00:12:47;;;;;;;7.57;3.35;;;11.00;79.00;;;;;;4101708;28;20037;-85
2022/09/30 00:14:47;;;;;;;5.85;3.45;;;10.90;78.90;;;;;;4123889;28;20038;-85
2022/09/30 00:16:49;;;;;;;4.22;2.90;;;11.00;79.30;;;;;;4105539;28;20038;-85
2022/09/30 00:18:51;;;;;;;6.13;3.90;;;10.90;78.90;;;;;;4110821;28;20069;-85
2022/09/30 00:20:52;;;;;;;6.57;3.42;;;10.90;78.90;;;;;;4104543;28;20037;-85
2022/09/30 00:22:53;;;;;;;4.38;3.08;;;10.90;78.90;;;;;;4124504;28;20053;-85
2022/09/30 00:24:53;;;;;;;7.55;3.67;;;10.90;79.00;;;;;;4108280;28;20050;-85
2022/09/30 00:26:54;;;;;;;6.40;3.38;;;10.90;79.00;;;;;;4108498;28;20134;-85
2022/09/30 00:28:57;;;;;;;4.68;3.33;;;11.00;79.10;;;;;;4108857;28;20035;-85
2022/09/30 00:31:02;;;;;;;6.97;3.25;;;10.90;79.10;;;;;;4109209;28;20031;-85
2022/09/30 00:33:02;;;;;;;7.78;3.38;;;10.90;79.10;;;;;;4112631;28;20058;-85
2022/09/30 00:35:04;;;;;;;8.77;3.45;;;10.80;79.00;;;;;;4111264;28;20053;-86
2022/09/30 00:37:04;;;;;;;7.13;3.90;;;10.80;79.10;;;;;;4105658;28;20234;-85
2022/09/30 00:39:08;;;;;;;5.63;3.60;;;10.80;79.10;;;;;;4107318;28;20062;-85
2022/09/30 00:41:08;;;;;;;9.52;3.83;;;10.90;79.20;;;;;;4108693;28;20505;-85
2022/09/30 00:43:16;;;;;;;12.30;3.85;;;10.90;79.30;;;;;;4107600;28;20050;-85
2022/09/30 00:45:17;;;;;;;8.75;3.80;;;10.80;79.20;;;;;;4101399;28;20034;-84
2022/09/30 00:47:36;;;;;;;5.18;3.65;;;10.90;79.20;;;;;;4106987;28;20089;-85
2022/09/30 00:49:37;;;;;;;7.22;3.80;;;10.80;79.20;;;;;;4106296;28;20037;-85
2022/09/30 00:51:41;;;;;;;8.85;3.95;;;10.80;79.20;;;;;;4104927;28;20591;-85
2022/09/30 00:53:56;;;;;;;6.38;3.42;;;10.80;79.20;;;;;;4106571;28;20385;-85
2022/09/30 00:56:07;;;;;;;7.53;3.78;;;10.80;79.40;;;;;;4106880;28;20038;-85
2022/09/30 00:58:13;;;;;;;12.10;4.10;;;10.80;79.30;;;;;;4109308;28;20034;-86
2022/09/30 01:00:14;;;;;;;6.90;3.53;;;10.80;79.40;;;;;;4109811;28;20084;-85
2022/09/30 01:02:15;;;;;;;5.55;3.78;;;10.80;79.40;;;;;;4109354;28;20523;-85
2022/09/30 01:04:20;;;;;;;8.07;4.47;;;10.80;79.50;;;;;;4109367;28;20108;-84
2022/09/30 01:06:22;;;;;;;4.55;3.60;;;10.90;79.60;;;;;;4108212;28;20049;-84
2022/09/30 01:08:25;;;;;;;6.18;3.60;;;10.90;79.60;;;;;;4111721;28;20050;-84
2022/09/30 01:10:26;;;;;;;7.13;4.22;;;10.70;79.50;;;;;;4121622;28;20035;-85
2022/09/30 01:12:26;;;;;;;6.63;3.83;;;10.80;79.60;;;;;;4119449;28;20047;-85
2022/09/30 01:14:27;;;;;;;6.60;3.75;;;10.70;79.50;;;;;;4124771;28;20035;-85
2022/09/30 01:16:49;;;;;;;9.18;3.75;;;10.70;79.50;;;;;;4109164;28;20126;-84
2022/09/30 01:19:15;;;;;;;4.90;3.83;;;10.80;79.70;;;;;;4104810;28;20058;-85
2022/09/30 01:21:53;;;;;;;6.25;3.60;;;10.80;79.50;;;;;;4110996;28;20042;-85
2022/09/30 01:24:00;;;;;;;5.57;3.67;;;10.80;79.70;;;;;;4110489;28;20129;-86
2022/09/30 01:26:22;;;;;;;5.32;3.72;;;10.80;79.50;;;;;;4112699;28;20023;-85
2022/09/30 01:28:44;;;;;;;4.18;3.38;;;10.70;79.60;;;;;;4109880;28;20034;-85
2022/09/30 01:31:21;;;;;;;5.75;3.83;;;10.80;79.70;;;;;;4106212;28;20031;-85
2022/09/30 01:33:40;;;;;;;6.97;3.75;;;10.80;79.60;;;;;;4107849;28;20031;-85
2022/09/30 01:36:09;;;;;;;6.00;3.75;;;10.70;79.40;;;;;;4110943;28;20035;-85
2022/09/30 01:38:34;;;;;;;8.98;4.00;;;10.70;79.50;;;;;;4111239;28;20142;-84
2022/09/30 01:41:05;;;;;;;7.22;3.67;;;10.70;79.40;;;;;;4108114;28;20052;-85
2022/09/30 01:43:17;;;;;;;5.45;3.47;;;10.70;79.40;;;;;;4108419;28;20062;-85
2022/09/30 01:45:31;;;;;;;5.35;3.65;;;10.70;79.30;;;;;;4105438;28;20066;-85
2022/09/30 01:48:01;;;;;;;7.05;3.60;;;10.70;79.30;;;;;;4106463;28;20039;-85
2022/09/30 01:50:04;;;;;;;5.72;3.33;;;10.70;79.40;;;;;;4110599;28;20042;-85
2022/09/30 01:52:20;;;;;;;5.85;3.60;;;10.70;79.20;;;;;;4105084;28;20038;-85
2022/09/30 01:54:36;;;;;;;6.78;3.08;;;10.70;79.20;;;;;;4107432;28;20035;-84
2022/09/30 01:57:02;;;;;;;5.35;3.28;;;10.60;79.10;;;;;;4106076;28;20130;-84
2022/09/30 01:59:30;;;;;;;11.18;3.88;;;10.60;79.30;;;;;;4104915;28;20043;-85
2022/09/30 02:01:41;;;;;;;5.80;3.58;;;10.60;79.20;;;;;;4109231;28;20137;-85
2022/09/30 02:03:51;;;;;;;4.50;3.33;;;10.70;79.20;;;;;;4110790;28;20034;-84
2022/09/30 02:06:01;;;;;;;4.28;3.10;;;10.60;79.10;;;;;;4108657;28;20034;-84
2022/09/30 02:08:25;;;;;;;5.72;3.75;;;10.50;79.00;;;;;;4110604;28;20054;-83
2022/09/30 02:10:34;;;;;;;7.25;3.67;;;10.50;79.10;;;;;;4109238;28;20045;-83
2022/09/30 02:12:41;;;;;;;9.55;3.63;;;10.50;79.00;;;;;;4113367;28;20034;-84
2022/09/30 02:14:54;;;;;;;4.93;3.45;;;10.60;79.20;;;;;;4109030;28;20026;-83
2022/09/30 02:17:01;;;;;;;5.13;3.50;;;10.50;79.20;;;;;;4106564;28;20476;-83
2022/09/30 02:19:24;;;;;;;5.57;3.70;;;10.50;79.10;;;;;;4111074;28;20058;-83
2022/09/30 02:21:32;;;;;;;4.10;3.30;;;10.50;79.20;;;;;;4108518;28;20036;-84
2022/09/30 02:23:40;;;;;;;5.75;3.78;;;10.40;79.10;;;;;;4112070;28;20150;-84
2022/09/30 02:25:46;;;;;;;4.93;3.47;;;10.40;79.10;;;;;;4114273;28;20030;-84
2022/09/30 02:27:55;;;;;;;6.45;3.38;;;10.40;79.20;;;;;;4107916;28;20035;-84
2022/09/30 02:29:58;;;;;;;6.55;3.83;;;10.50;79.20;;;;;;4106282;28;20710;-84
2022/09/30 02:32:08;;;;;;;7.18;4.10;;;10.40;79.20;;;;;;4107949;28;20055;-84
2022/09/30 02:34:17;;;;;;;7.35;4.65;;;10.40;79.20;;;;;;4126522;28;20030;-84
2022/09/30 02:36:26;;;;;;;4.75;3.47;;;10.50;79.30;;;;;;4111114;28;20027;-84
2022/09/30 02:38:39;;;;;;;6.28;4.30;;;10.50;79.30;;;;;;4127869;28;20038;-84
2022/09/30 02:40:57;;;;;;;6.07;3.83;;;10.50;79.40;;;;;;4110401;28;20042;-84
2022/09/30 02:42:58;;;;;;;10.10;4.35;;;10.40;79.50;;;;;;4110831;28;20034;-84
2022/09/30 02:45:06;;;;;;;8.65;4.43;;;10.40;79.40;;;;;;4110438;28;20694;-85
2022/09/30 02:47:53;;;;;;;4.82;3.75;;;10.50;79.50;;;;;;4112283;28;20041;-84
2022/09/30 02:50:58;;;;;;;4.47;3.58;;;10.50;79.70;;;;;;4069594;28;20097;-84
2022/09/30 02:53:10;;;;;;;7.82;4.03;;;10.50;79.80;;;;;;4038180;28;20065;-84
2022/09/30 02:55:18;;;;;;;9.60;4.53;;;10.50;79.60;;;;;;4126480;28;20026;-84
2022/09/30 02:57:43;;;;;;;7.03;4.78;;;10.50;79.60;;;;;;4115113;28;20540;-84
2022/09/30 02:59:51;;;;;;;8.20;4.47;;;10.50;79.70;;;;;;4114584;28;20043;-84
2022/09/30 03:01:52;;;;;;;6.75;4.75;;;10.50;79.70;;;;;;4109089;28;20047;-85
2022/09/30 03:03:55;;;;;;;6.55;4.25;;;10.60;79.80;;;;;;4113596;28;20047;-85
2022/09/30 03:05:56;;;;;;;6.97;4.72;;;10.50;79.80;;;;;;4111998;28;20357;-87
2022/09/30 03:07:57;;;;;;;5.68;4.22;;;10.50;79.80;;;;;;4110498;28;20058;-85
2022/09/30 03:09:58;;;;;;;6.97;4.80;;;10.60;79.80;;;;;;4115460;28;20083;-84
2022/09/30 03:12:10;;;;;;;5.90;4.35;;;10.60;79.80;;;;;;4110225;28;20034;-85
2022/09/30 03:14:41;;;;;;;6.35;4.47;;;10.50;79.80;;;;;;4110532;28;20034;-85
2022/09/30 03:17:22;;;;;;;6.50;4.40;;;10.60;79.80;;;;;;4110835;28;20035;-84
2022/09/30 03:19:35;;;;;;;6.15;4.50;;;10.50;79.80;;;;;;4114403;28;20134;-84
2022/09/30 03:21:44;;;;;;;7.50;4.50;;;10.60;79.60;;;;;;4114931;28;20038;-84
2022/09/30 03:24:17;;;;;;;6.40;4.30;;;10.70;79.60;;;;;;4111807;28;20097;-84
2022/09/30 03:26:36;;;;;;;9.35;4.50;;;10.60;79.70;;;;;;4111997;28;20046;-85
2022/09/30 03:28:49;;;;;;;6.97;4.82;;;10.60;79.70;;;;;;4113880;28;20189;-85
2022/09/30 03:30:54;;;;;;;5.47;4.30;;;10.60;79.70;;;;;;4114114;28;20034;-84
2022/09/30 03:33:07;;;;;;;5.30;4.32;;;10.70;79.70;;;;;;4112638;28;20117;-85
2022/09/30 03:35:32;;;;;;;7.82;3.97;;;10.60;79.70;;;;;;4111563;28;20058;-85
2022/09/30 03:38:07;;;;;;;5.78;4.00;;;10.60;79.80;;;;;;4113655;28;20042;-85
2022/09/30 03:40:32;;;;;;;7.43;5.00;;;10.60;79.70;;;;;;4049257;29;20028;-84
2022/09/30 03:42:38;;;;;;;8.18;4.63;;;10.60;79.70;;;;;;4123516;28;20035;-85
2022/09/30 03:45:10;;;;;;;8.45;5.07;;;10.60;79.60;;;;;;4131496;28;20026;-86
2022/09/30 03:47:15;;;;;;;8.45;4.63;;;10.60;79.70;;;;;;4111615;28;20046;-85
2022/09/30 03:49:25;;;;;;;10.05;4.70;;;10.60;79.70;;;;;;4110885;28;20035;-84
2022/09/30 03:51:28;;;;;;;8.30;5.63;;;10.60;79.80;;;;;;4110474;28;20089;-85
2022/09/30 03:53:28;;;;;;;9.37;4.90;;;10.60;79.70;;;;;;4109389;28;20027;-84
2022/09/30 03:55:32;;;;;;;7.95;5.40;;;10.70;79.80;;;;;;4105782;28;20648;-85
2022/09/30 03:57:32;;;;;;;;;;;10.80;79.90;;;;;;4113537;28;20058;-84
2022/09/30 03:59:33;;;;;;;9.00;4.82;;;10.80;80.20;;;;;;4127657;28;19936;-85
2022/09/30 04:01:33;;;;;;;10.30;5.07;;;10.60;79.60;;;;;;4107603;28;20086;-84
2022/09/30 04:03:34;;;;;;;9.80;5.85;;;10.70;79.60;;;;;;4111829;28;20039;-85
2022/09/30 04:05:35;;;;;;;7.75;5.18;;;10.70;79.60;;;;;;4109536;28;20042;-84
2022/09/30 04:07:36;;;;;;;12.70;5.70;;;10.60;79.60;;;;;;4109234;28;20458;-85
2022/09/30 04:09:37;;;;;;;11.57;5.72;;;10.70;80.50;;;;;;4109801;28;20037;-85
2022/09/30 04:11:38;;;;;;;7.88;5.38;;;10.70;79.70;;;;;;4110697;28;20066;-85
2022/09/30 04:13:39;;;;;;;9.70;5.72;;;10.70;79.80;;;;;;4110790;28;20041;-85
2022/09/30 04:15:40;;;;;;;12.15;6.38;;;10.60;79.80;;;;;;4106470;28;20042;-84
2022/09/30 04:17:41;;;;;;;14.73;6.18;;;10.70;79.90;;;;;;4126575;28;20026;-84
2022/09/30 04:19:41;;;;;;;14.88;5.90;;;10.70;79.90;;;;;;4109716;28;20074;-84
2022/09/30 04:21:42;;;;;;;9.77;5.45;;;10.60;79.70;;;;;;4109648;28;20031;-83
2022/09/30 04:23:43;;;;;;;9.32;5.60;;;10.70;79.80;;;;;;4112081;28;20041;-84
2022/09/30 04:25:51;;;;;;;10.27;5.80;;;10.60;79.80;;;;;;4112431;28;20034;-84
2022/09/30 04:27:52;;;;;;;7.68;4.95;;;10.60;79.90;;;;;;4114389;28;20056;-84
2022/09/30 04:29:53;;;;;;;8.35;4.63;;;10.60;79.80;;;;;;4112741;28;20062;-84
2022/09/30 04:31:54;;;;;;;8.55;5.15;;;10.70;79.90;;;;;;4110129;28;20086;-83
2022/09/30 04:33:55;;;;;;;8.15;5.28;;;10.60;79.90;;;;;;4108055;28;20043;-84
2022/09/30 04:35:58;;;;;;;11.88;5.78;;;10.60;79.70;;;;;;4109318;28;20034;-84
2022/09/30 04:37:58;;;;;;;9.05;6.05;;;10.70;79.80;;;;;;4124835;28;20038;-83
2022/09/30 04:39:59;;;;;;;14.50;8.65;;;10.60;79.70;;;;;;4108406;28;20120;-83
2022/09/30 04:41:59;;;;;;;11.23;6.80;;;10.60;79.70;;;;;;4103594;28;20041;-83
2022/09/30 04:44:05;;;;;;;6.95;4.90;;;10.60;79.70;;;;;;4109788;28;20070;-83
2022/09/30 04:46:06;;;;;;;6.72;4.28;;;10.60;79.70;;;;;;4107698;28;20062;-82
2022/09/30 04:48:07;;;;;;;6.80;4.38;;;10.70;79.70;;;;;;4110160;28;20432;-83
2022/09/30 04:50:08;;;;;;;9.13;4.82;;;10.60;79.70;;;;;;4109935;28;20042;-83
2022/09/30 04:52:08;;;;;;;6.05;4.50;;;10.60;79.60;;;;;;4116325;28;20035;-83
2022/09/30 04:54:09;;;;;;;5.85;3.88;;;10.60;79.60;;;;;;4135492;28;20042;-83
2022/09/30 04:56:10;;;;;;;6.38;4.07;;;10.60;79.50;;;;;;4109409;28;20039;-83
2022/09/30 04:58:11;;;;;;;10.75;5.15;;;10.60;79.50;;;;;;4106902;28;20035;-83
2022/09/30 05:00:12;;;;;;;9.05;5.28;;;10.60;79.50;;;;;;4108727;28;20041;-82
2022/09/30 05:02:13;;;;;;;8.75;5.65;;;10.70;79.50;;;;;;4110955;28;20493;-83
2022/09/30 05:04:15;;;;;;;10.63;5.70;;;10.50;79.30;;;;;;4105187;28;20030;-82
2022/09/30 05:06:16;;;;;;;16.15;6.93;;;10.60;79.40;;;;;;4109794;28;20047;-82
2022/09/30 05:08:16;;;;;;;9.93;6.35;;;10.50;79.30;;;;;;4115144;28;20101;-84
2022/09/30 05:10:17;;;;;;;12.02;6.60;;;10.60;79.50;;;;;;4111685;28;20031;-84
2022/09/30 05:12:18;;;;;;;8.25;6.07;;;10.50;79.40;;;;;;4108556;28;20043;-83
2022/09/30 05:14:18;;;;;;;12.30;6.20;;;10.50;79.30;;;;;;4107060;28;20118;-84
2022/09/30 05:16:20;;;;;;;9.77;6.40;;;10.50;79.30;;;;;;4106098;28;20019;-83
2022/09/30 05:18:21;;;;;;;10.52;6.68;;;10.60;79.40;;;;;;4121402;28;20602;-83
2022/09/30 05:20:22;;;;;;;13.25;6.32;;;10.50;79.30;;;;;;4106348;28;20031;-84
2022/09/30 05:22:23;;;;;;;11.57;6.97;;;10.60;79.40;;;;;;4110874;28;20130;-83
2022/09/30 05:24:24;;;;;;;15.38;8.48;;;10.50;79.40;;;;;;4109818;28;20034;-83
2022/09/30 05:26:25;;;;;;;11.32;6.80;;;10.50;79.40;;;;;;4109399;28;20553;-83
2022/09/30 05:28:26;;;;;;;11.25;7.43;;;10.40;79.40;;;;;;4108917;28;20035;-82
2022/09/30 05:30:27;;;;;;;9.43;6.05;;;10.50;79.50;;;;;;4101474;28;20031;-83
2022/09/30 05:32:28;;;;;;;15.00;5.85;;;10.60;79.60;;;;;;4107021;28;20117;-83
2022/09/30 05:34:29;;;;;;;10.27;6.43;;;10.40;79.50;;;;;;4110297;28;20042;-83
2022/09/30 05:36:29;;;;;;;10.45;5.68;;;10.50;79.60;;;;;;4109725;28;20030;-83
2022/09/30 05:38:30;;;;;;;13.30;6.03;;;10.50;79.60;;;;;;4111192;28;20073;-84
2022/09/30 05:40:31;;;;;;;11.65;6.75;;;10.60;79.70;;;;;;4108348;28;20038;-82
2022/09/30 05:42:35;;;;;;;11.02;7.13;;;10.50;79.70;;;;;;4110224;28;20035;-83
2022/09/30 05:44:36;;;;;;;9.48;6.72;;;10.50;79.70;;;;;;4112023;28;20034;-82
2022/09/30 05:46:37;;;;;;;13.10;6.30;;;10.50;79.60;;;;;;4111142;28;20026;-83
2022/09/30 05:48:37;;;;;;;9.30;6.43;;;10.50;79.60;;;;;;4108984;28;20077;-84
2022/09/30 05:50:38;;;;;;;9.70;6.03;;;10.50;80.30;;;;;;4107113;28;20031;-84
2022/09/30 05:52:39;;;;;;;9.98;6.10;;;10.60;79.70;;;;;;4111271;28;20034;-83
2022/09/30 05:54:39;;;;;;;11.43;5.25;;;10.50;79.60;;;;;;4114688;28;20034;-83
2022/09/30 05:56:40;;;;;;;10.30;5.28;;;10.50;79.60;;;;;;4115640;28;20030;-82
2022/09/30 05:58:41;;;;;;;10.00;5.15;;;10.50;79.50;;;;;;4116388;28;20027;-83
2022/09/30 06:00:43;;;;;;;9.23;5.65;;;10.50;79.50;;;;;;4116544;28;20045;-83
2022/09/30 06:02:44;;;;;;;8.47;5.20;;;10.50;79.60;;;;;;4116657;28;20109;-83
2022/09/30 06:04:44;;;;;;;8.95;5.38;;;10.50;79.50;;;;;;4118459;28;20044;-83
2022/09/30 06:06:46;;;;;;;9.63;4.80;;;10.50;79.60;;;;;;4115437;28;20123;-83
2022/09/30 06:08:46;;;;;;;10.35;4.60;;;10.50;79.60;;;;;;4116572;28;20033;-83
2022/09/30 06:10:47;;;;;;;7.95;4.78;;;10.50;79.70;;;;;;4116215;28;20034;-83
2022/09/30 06:12:47;;;;;;;7.70;5.30;;;10.50;79.70;;;;;;4115746;28;20035;-83
2022/09/30 06:14:48;;;;;;;9.82;5.30;;;10.50;79.70;;;;;;4118990;28;20035;-83
2022/09/30 06:16:48;;;;;;;9.43;5.50;;;10.50;80.50;;;;;;4118572;28;20026;-82
2022/09/30 06:18:49;;;;;;;13.15;5.65;;;10.70;79.90;;;;;;4121947;28;20043;-83
2022/09/30 06:20:50;;;;;;;14.95;6.07;;;10.60;79.80;;;;;;4110963;28;20034;-83
2022/09/30 06:22:50;;;;;;;11.88;5.60;;;10.50;80.50;;;;;;4112495;28;20509;-83
2022/09/30 06:24:51;;;;;;;13.15;5.63;;;10.60;79.70;;;;;;4114100;28;20049;-84
2022/09/30 06:26:52;;;;;;;8.55;4.97;;;10.60;79.80;;;;;;4113474;28;20035;-83
2022/09/30 06:28:53;;;;;;;7.60;5.38;;;10.60;79.90;;;;;;4114502;28;20048;-83
2022/09/30 06:30:53;;;;;;;13.10;5.32;;;10.70;79.90;;;;;;4114706;28;20038;-83
2022/09/30 06:32:57;;;;;;;10.95;6.03;;;10.60;79.90;;;;;;4113270;28;20406;-83
2022/09/30 06:34:58;;;;;;;10.13;5.45;;;10.60;80.10;;;;;;4113759;28;20037;-83
2022/09/30 06:36:58;;;;;;;7.38;5.18;;;10.60;80.00;;;;;;4112352;28;20031;-83
2022/09/30 06:39:00;;;;;;;11.18;5.35;;;10.70;80.10;;;;;;4114536;28;20039;-82
2022/09/30 06:41:01;;;;;;;8.65;5.45;;;10.70;80.10;;;;;;4114836;28;20042;-83
2022/09/30 06:43:03;;;;;;;7.72;5.07;;;10.80;80.20;;;;;;4110327;28;20054;-84
2022/09/30 06:45:04;;;;;;;10.13;6.10;;;10.70;80.10;;;;;;4115072;28;20407;-83
2022/09/30 06:47:04;;;;;;;9.55;4.90;;;10.70;80.10;;;;;;4114712;28;20041;-83
2022/09/30 06:49:06;;;;;;;7.78;4.95;;;10.80;80.10;;;;;;4133063;28;20038;-83
2022/09/30 06:51:09;;;;;;;7.32;5.00;;;10.80;80.20;;;;;;4118538;28;20030;-83
2022/09/30 06:53:11;;;;;;;5.82;4.75;;;10.70;80.10;;;;;;4118875;28;20054;-84
2022/09/30 06:55:11;;;;;;;7.15;4.45;;;10.80;80.10;;;;;;4118055;28;20114;-83
2022/09/30 06:57:12;;;;;;;7.15;4.78;;;10.80;80.10;;;;;;4121133;28;20793;-83
2022/09/30 06:59:16;;;;;;;5.95;4.57;;;10.80;80.10;;;;;;4120183;28;20035;-83
2022/09/30 07:01:19;;;;;;;7.10;4.30;;;10.80;80.00;;;;;;4120007;28;20031;-84
2022/09/30 07:03:28;;;;;;;8.57;4.85;;;11.00;80.10;;;;;;4120842;28;20027;-83
2022/09/30 07:05:28;;;;;;;5.65;4.43;;;10.90;79.80;;;;;;4121026;28;20043;-83
2022/09/30 07:07:32;;;;;;;9.10;4.47;;;10.90;79.70;;;;;;4120677;28;20034;-83
2022/09/30 07:09:33;;;;;;;6.93;3.92;;;10.90;79.50;;;;;;4121164;28;20046;-81
2022/09/30 07:11:33;;;;;;;8.43;4.18;;;10.90;79.40;;;;;;4123469;28;20031;-83
2022/09/30 07:13:34;;;;;;;5.05;3.95;;;10.90;79.40;;;;;;4136473;28;20113;-83
2022/09/30 07:15:34;;;;;;;6.47;4.53;;;10.90;79.30;;;;;;4118656;28;20019;-82
2022/09/30 07:17:35;;;;;;;4.72;3.70;;;10.90;79.30;;;;;;4118300;28;20077;-82
2022/09/30 07:19:36;;;;;;;8.35;4.65;;;10.90;79.80;;;;;;4118207;28;20026;-82
2022/09/30 07:21:36;;;;;;;5.85;4.22;;;10.90;78.80;;;;;;4120170;28;20083;-82
2022/09/30 07:23:37;;;;;;;5.43;4.30;;;11.00;78.90;;;;;;4121824;28;20062;-83
2022/09/30 07:25:37;;;;;;;9.98;5.10;;;10.90;78.80;;;;;;4117306;28;20031;-84
2022/09/30 07:27:38;;;;;;;6.50;4.55;;;10.90;78.70;;;;;;4120509;28;20037;-83
2022/09/30 07:29:40;;;;;;;8.18;4.50;;;10.90;78.70;;;;;;4119234;28;20038;-84
2022/09/30 07:31:40;;;;;;;7.57;4.90;;;11.00;78.80;;;;;;4116548;28;20033;-83
2022/09/30 07:33:42;;;;;;;6.78;4.85;;;10.90;78.70;;;;;;4117659;28;20030;-83
2022/09/30 07:35:51;;;;;;;6.45;4.53;;;10.90;78.60;;;;;;4117908;28;20035;-84
2022/09/30 07:37:51;;;;;;;6.20;4.30;;;10.90;78.60;;;;;;4120093;28;20042;-83
2022/09/30 07:39:53;;;;;;;16.25;4.18;;;10.90;78.70;;;;;;4121572;28;20030;-83
2022/09/30 07:41:53;;;;;;;6.40;3.72;;;10.90;78.70;;;;;;4120249;28;20031;-83
2022/09/30 07:43:58;;;;;;;5.82;3.83;;;10.90;78.70;;;;;;4119238;28;20030;-82
2022/09/30 07:46:02;;;;;;;5.55;3.60;;;10.90;78.70;;;;;;4117485;28;20031;-83
2022/09/30 07:48:21;;;;;;;4.57;2.95;;;10.90;78.70;;;;;;4120107;28;20042;-83
2022/09/30 07:50:23;;;;;;;5.95;3.92;;;10.90;78.60;;;;;;4119449;28;20654;-83
2022/09/30 07:52:24;;;;;;;4.85;3.55;;;11.00;78.60;;;;;;4121700;28;20037;-83
2022/09/30 07:54:28;;;;;;;5.45;3.17;;;10.90;78.50;;;;;;4118224;28;20031;-84
2022/09/30 07:56:28;;;;;;;6.18;3.25;;;10.90;78.50;;;;;;4120964;28;20038;-83
2022/09/30 07:58:29;;;;;;;6.00;3.88;;;10.90;78.60;;;;;;4119784;28;20042;-83
2022/09/30 08:00:30;;;;;;;6.38;3.97;;;11.00;78.60;;;;;;4120328;28;20085;-82
2022/09/30 08:02:30;;;;;;;5.78;4.10;;;11.10;78.70;;;;;;4132688;28;20084;-83
2022/09/30 08:04:31;;;;;;;7.72;4.18;;;11.00;78.50;;;;;;4117423;28;20035;-83
2022/09/30 08:06:36;;;;;;;4.55;3.47;;;11.00;78.40;;;;;;4116259;28;20041;-83
2022/09/30 08:08:37;;;;;;;5.35;3.67;;;11.00;78.30;;;;;;4117054;28;20039;-82
2022/09/30 08:10:37;;;;;;;4.95;3.30;;;11.00;78.20;;;;;;4114447;28;21365;-84
2022/09/30 08:12:38;;;;;;;6.80;3.00;;;11.00;78.10;;;;;;4118143;28;20023;-83
2022/09/30 08:14:39;;;;;;;7.03;3.30;;;11.00;78.20;;;;;;4118369;28;20171;-83
2022/09/30 08:16:40;;;;;;;7.35;3.42;;;11.00;78.20;;;;;;4115108;28;20031;-81
2022/09/30 08:18:40;;;;;;;5.68;3.72;;;11.00;78.20;;;;;;4115956;28;20035;-83
2022/09/30 08:20:41;;;;;;;5.78;3.75;;;11.10;78.30;;;;;;4114841;28;20061;-82
2022/09/30 08:22:41;;;;;;;6.63;3.90;;;11.10;78.30;;;;;;4106661;28;20034;-83
2022/09/30 08:24:42;;;;;;;5.25;3.30;;;11.30;78.60;;;;;;4113245;28;20066;-83
2022/09/30 08:26:43;;;;;;;7.97;3.83;;;11.10;78.50;;;;;;4116314;28;20105;-82
2022/09/30 08:28:47;;;;;;;8.48;3.80;;;11.20;78.50;;;;;;4109631;28;20042;-83
2022/09/30 08:30:47;;;;;;;5.38;3.67;;;11.20;78.60;;;;;;4115265;28;20030;-83
2022/09/30 08:32:48;;;;;;;5.90;3.78;;;11.20;78.50;;;;;;4115620;28;20031;-81
2022/09/30 08:34:49;;;;;;;4.70;3.42;;;11.30;78.60;;;;;;4117482;28;20054;-83
2022/09/30 08:36:49;;;;;;;3.70;2.50;;;11.30;78.50;;;;;;4119169;28;20037;-83
2022/09/30 08:38:50;;;;;;;3.90;2.63;;;11.30;78.40;;;;;;4119852;28;20050;-84
2022/09/30 08:41:09;;;;;;;4.20;2.80;;;11.40;78.50;;;;;;4135333;28;20048;-83
2022/09/30 08:43:23;;;;;;;4.82;2.38;;;11.40;78.50;;;;;;4118392;28;20122;-83
2022/09/30 08:45:37;;;;;;;4.82;2.97;;;11.50;78.50;;;;;;4117037;28;20501;-81
2022/09/30 08:48:09;;;;;;;4.18;2.90;;;11.50;78.70;;;;;;4115156;28;20023;-83
2022/09/30 08:50:28;;;;;;;5.68;3.05;;;11.60;78.80;;;;;;4034096;29;20241;-83
2022/09/30 08:52:43;;;;;;;5.07;3.45;;;11.70;78.70;;;;;;4047570;29;20040;-81
2022/09/30 08:54:49;;;;;;;4.78;3.08;;;11.70;78.60;;;;;;4037216;29;20142;-83
2022/09/30 08:56:50;;;;;;;6.45;3.20;;;11.80;78.40;;;;;;4046286;29;20028;-83
2022/09/30 08:58:55;;;;;;;4.65;3.03;;;11.90;78.40;;;;;;4049219;29;20052;-83
2022/09/30 09:01:03;;;;;;;4.50;3.22;;;12.10;78.50;;;;;;4047548;29;20040;-83
2022/09/30 09:03:04;;;;;;;5.53;2.47;;;12.00;77.80;;;;;;4048463;29;20033;-83
2022/09/30 09:05:06;;;;;;;5.22;2.90;;;12.10;77.50;;;;;;4033376;29;20105;-82
2022/09/30 09:07:28;;;;;;;5.95;2.72;;;12.10;77.30;;;;;;4034315;29;20037;-83
2022/09/30 09:09:54;;;;;;;4.22;2.72;;;12.20;77.10;;;;;;4045649;29;20029;-82
2022/09/30 09:12:09;;;;;;;4.38;2.30;;;12.20;77.10;;;;;;4037050;29;20041;-83
2022/09/30 09:14:34;;;;;;;4.32;2.47;;;12.40;77.10;;;;;;4043819;29;20044;-83
2022/09/30 09:16:42;;;;;;;3.88;2.17;;;12.30;76.90;;;;;;4036231;29;20037;-83
2022/09/30 09:18:57;;;;;;;3.92;2.30;;;12.40;77.00;;;;;;4040652;29;20036;-82
2022/09/30 09:21:08;;;;;;;4.95;2.28;;;12.50;76.70;;;;;;4034220;29;20070;-84
2022/09/30 09:23:11;;;;;;;4.93;2.08;;;12.50;76.50;;;;;;4044373;29;20052;-83
2022/09/30 09:25:15;;;;;;;2.72;1.98;;;12.60;75.40;;;;;;4051800;28;20036;-83
2022/09/30 09:27:33;;;;;;;;;;;12.60;74.90;;;;;;4114960;28;20034;-84
2022/09/30 09:29:41;;;;;;;5.20;2.03;;;12.60;73.70;;;;;;4111517;28;19925;-84
2022/09/30 09:31:42;;;;;;;4.68;2.15;;;12.70;75.20;;;;;;4114206;28;20069;-83
2022/09/30 09:33:43;;;;;;;6.05;2.00;;;12.90;75.50;;;;;;4109963;28;20027;-83
2022/09/30 09:36:00;;;;;;;4.32;2.05;;;12.80;75.30;;;;;;4115398;28;20046;-84
2022/09/30 09:40:33;;;;;;;3.90;2.08;;;13.00;75.50;;;;;;4114051;28;20097;-83
2022/09/30 09:42:41;;;;;;;5.03;1.85;;;13.00;74.20;;;;;;4123206;28;20072;-83
2022/09/30 09:44:55;;;;;;;3.20;2.17;;;13.20;73.60;;;;;;4112735;28;20035;-83
2022/09/30 09:47:04;;;;;;;;;;;13.10;73.70;;;;;;4116526;28;20588;-85
2022/09/30 09:49:28;;;;;;;6.13;1.80;;;13.20;72.40;;;;;;4108153;28;20410;-84
2022/09/30 09:51:34;;;;;;;1.70;1.45;;;13.30;72.10;;;;;;4106982;28;20544;-84
2022/09/30 09:53:44;;;;;;;2.70;1.50;;;13.40;72.80;;;;;;4109333;28;20038;-84
2022/09/30 09:55:45;;;;;;;2.15;1.30;;;13.30;72.40;;;;;;4105537;28;20237;-84
2022/09/30 09:57:46;;;;;;;3.13;1.48;;;13.40;72.70;;;;;;4106691;28;20050;-84
2022/09/30 10:02:30;;;;;;;4.32;1.52;;;13.40;71.60;;;;;;4107412;28;20034;-84
2022/09/30 10:04:32;;;;;;;2.85;1.30;;;13.50;71.90;;;;;;4108134;28;20122;-84
2022/09/30 10:06:42;;;;;;;2.55;1.40;;;13.50;71.90;;;;;;4107943;28;20020;-83
2022/09/30 10:08:54;;;;;;;1.83;1.20;;;13.50;71.70;;;;;;4109458;28;20437;-84
2022/09/30 10:10:58;;;;;;;4.18;1.20;;;13.60;71.20;;;;;;4107494;28;20027;-83
2022/09/30 10:12:59;;;;;;;1.83;1.13;;;13.70;71.30;;;;;;4107483;28;20030;-84
2022/09/30 10:15:04;;;;;;;1.63;1.40;;;13.80;71.40;;;;;;4109203;28;20058;-83
2022/09/30 10:17:16;;;;;;;3.70;1.30;;;13.90;70.90;;;;;;4108751;28;20030;-84
2022/09/30 10:19:24;;;;;;;3.38;1.20;;;14.00;70.60;;;;;;4107244;28;20042;-85
2022/09/30 10:21:27;;;;;;;3.15;1.30;;;14.10;70.10;;;;;;4104053;28;20520;-83
2022/09/30 10:23:32;;;;;;;2.10;1.27;;;14.00;70.00;;;;;;4113400;28;20392;-84
2022/09/30 10:25:33;;;;;;;2.50;1.40;;;14.10;70.30;;;;;;4110559;28;20042;-85
2022/09/30 10:27:34;;;;;;;2.83;1.48;;;14.20;70.50;;;;;;4111479;28;20098;-84
2022/09/30 10:29:35;;;;;;;2.30;1.42;;;14.30;69.00;;;;;;4111896;28;20027;-85
2022/09/30 10:31:40;;;;;;;2.53;1.08;;;14.30;68.40;;;;;;4109196;28;20138;-83
2022/09/30 10:33:47;;;;;;;10.23;1.52;;;14.40;68.10;;;;;;4109757;28;20031;-84
2022/09/30 10:35:55;;;;;;;3.20;1.17;;;14.30;68.00;;;;;;4106652;28;20037;-83
2022/09/30 10:37:59;;;;;;;2.30;1.10;;;14.50;67.40;;;;;;4110592;28;21138;-84
2022/09/30 10:40:00;;;;;;;;;;;14.40;66.10;;;;;;4111015;28;21124;-84
2022/09/30 10:42:22;;;;;;;2.72;1.10;;;14.40;65.70;;;;;;4110908;28;19919;-84
2022/09/30 10:44:23;;;;;;;3.70;1.13;;;14.50;66.60;;;;;;4112669;28;20146;-84
2022/09/30 10:46:38;;;;;;;1.25;0.80;;;14.50;66.60;;;;;;4112191;28;20134;-85
2022/09/30 10:48:40;;;;;;;5.53;1.17;;;14.50;65.70;;;;;;4111532;28;20035;-84
2022/09/30 10:50:49;;;;;;;1.50;0.90;;;14.40;65.90;;;;;;4107600;28;20026;-84
2022/09/30 10:52:57;;;;;;;1.92;1.00;;;14.40;65.80;;;;;;4107811;28;20035;-84
2022/09/30 10:55:06;;;;;;;2.03;0.80;;;14.50;66.30;;;;;;4113034;28;20061;-85
2022/09/30 10:57:17;;;;;;;1.42;0.75;;;14.40;66.40;;;;;;4110048;28;20073;-84
2022/09/30 10:59:33;;;;;;;1.52;1.00;;;14.50;66.30;;;;;;4113592;28;20576;-84
2022/09/30 11:01:49;;;;;;;3.78;0.80;;;14.40;65.60;;;;;;4112927;28;20036;-85